Time;durP1;ratioP1;P1;durP2;ratioP2;P2;SDS_P1;SDS_P2;PMS_P1;PMS_P2;Temp;Humidity;BMP_temperature;BMP_pressure;BME280_temperature;BME280_humidity;BME280_pressure;Samples;Min_cycle;Max_cycle;Signal;HPM_P1;HPM_P2
2023/05/27 00:00:03;;;;;;;8.50;3.00;;;;;;;9.79;100.00;101931.69;692042;28;853;-60
2023/05/27 00:00:26;;;;;;;9.35;3.13;;;;;;;9.75;100.00;101931.56;687069;28;855;-60
2023/05/27 00:00:47;;;;;;;10.52;3.28;;;;;;;9.72;100.00;101929.81;689213;28;4366;-60
2023/05/27 00:01:07;;;;;;;11.37;3.10;;;;;;;9.73;100.00;101926.31;690317;28;1256;-60
2023/05/27 00:01:27;;;;;;;12.63;3.60;;;;;;;9.73;100.00;101930.69;689030;28;954;-60
2023/05/27 00:01:48;;;;;;;9.27;3.40;;;;;;;9.70;100.00;101929.75;690125;28;1202;-60
2023/05/27 00:02:08;;;;;;;8.80;3.43;;;;;;;9.72;100.00;101935.03;690346;28;1174;-59
2023/05/27 00:02:28;;;;;;;11.98;3.40;;;;;;;9.74;100.00;101928.09;688972;28;1476;-60
2023/05/27 00:02:49;;;;;;;12.07;3.70;;;;;;;9.73;100.00;101936.78;689787;28;1130;-60
2023/05/27 00:03:10;;;;;;;10.50;3.20;;;;;;;9.72;100.00;101929.81;690654;28;796;-59
2023/05/27 00:03:32;;;;;;;9.43;3.30;;;;;;;9.71;100.00;101933.28;688031;28;1627;-61
2023/05/27 00:03:53;;;;;;;9.65;3.20;;;;;;;9.66;100.00;101927.06;689908;28;4558;-59
2023/05/27 00:04:13;;;;;;;12.07;3.73;;;;;;;9.66;100.00;101932.28;690422;28;1094;-63
2023/05/27 00:04:34;;;;;;;12.70;3.90;;;;;;;9.63;100.00;101932.25;690576;28;932;-60
2023/05/27 00:04:54;;;;;;;8.70;3.35;;;;;;;9.62;100.00;101928.75;691179;28;861;-60
2023/05/27 00:05:15;;;;;;;8.03;2.80;;;;;;;9.63;100.00;101930.50;689206;28;1571;-60
2023/05/27 00:05:36;;;;;;;10.30;3.15;;;;;;;9.61;100.00;101921.78;690667;28;919;-59
2023/05/27 00:05:56;;;;;;;10.35;3.20;;;;;;;9.67;100.00;101926.22;690110;28;976;-60
2023/05/27 00:06:17;;;;;;;9.10;3.43;;;;;;;9.68;100.00;101931.47;689060;28;1632;-60
2023/05/27 00:06:37;;;;;;;10.30;3.40;;;;;;;9.69;100.00;101929.72;690376;28;872;-60
2023/05/27 00:06:57;;;;;;;10.27;3.47;;;;;;;9.67;100.00;101926.22;689415;28;4392;-60
2023/05/27 00:07:18;;;;;;;10.55;3.10;;;;;;;9.63;100.00;101924.41;689301;28;1476;-60
2023/05/27 00:07:38;;;;;;;9.33;2.97;;;;;;;9.70;100.00;101934.13;690299;28;1019;-59
2023/05/27 00:07:59;;;;;;;10.45;3.28;;;;;;;9.73;100.00;101928.06;689926;28;824;-59
2023/05/27 00:08:19;;;;;;;11.60;3.17;;;;;;;9.68;100.00;101925.38;688337;28;1607;-60
2023/05/27 00:08:40;;;;;;;9.05;3.50;;;;;;;9.63;100.00;101927.03;690204;28;1000;-60
2023/05/27 00:09:00;;;;;;;9.00;3.37;;;;;;;9.60;100.00;101929.56;686987;28;1163;-59
2023/05/27 00:09:21;;;;;;;10.10;3.30;;;;;;;9.58;100.00;101932.16;686174;28;975;-59
2023/05/27 00:09:41;;;;;;;10.55;3.70;;;;;;;9.58;100.00;101929.56;686397;28;4404;-59
2023/05/27 00:10:02;;;;;;;10.77;3.20;;;;;;;9.59;100.00;101922.59;687913;28;842;-60
2023/05/27 00:10:22;;;;;;;10.90;3.40;;;;;;;9.57;100.00;101922.56;685286;28;1555;-59
2023/05/27 00:10:43;;;;;;;9.85;3.13;;;;;;;9.56;100.00;101919.94;687908;28;928;-59
2023/05/27 00:11:03;;;;;;;9.77;3.10;;;;;;;9.54;100.00;101923.38;689121;28;1098;-61
2023/05/27 00:11:25;;;;;;;9.43;3.10;;;;;;;9.56;100.00;101923.41;689719;28;1554;-60
2023/05/27 00:11:45;;;;;;;9.50;3.20;;;;;;;9.51;100.00;101925.94;691067;28;829;-60
2023/05/27 00:12:05;;;;;;;9.10;3.38;;;;;;;9.51;100.00;101920.72;687595;28;956;-60
2023/05/27 00:12:26;;;;;;;10.13;3.20;;;;;;;9.48;100.00;101920.63;687978;28;1452;-60
2023/05/27 00:12:46;;;;;;;7.60;2.83;;;;;;;9.49;100.00;101918.91;687418;28;4450;-59
2023/05/27 00:13:06;;;;;;;9.97;3.00;;;;;;;9.49;100.00;101925.00;687429;28;983;-59
2023/05/27 00:13:27;;;;;;;11.57;3.50;;;;;;;9.50;100.00;101923.28;686209;28;1975;-60
2023/05/27 00:13:47;;;;;;;8.93;2.70;;;;;;;9.54;100.00;101930.34;688711;28;1043;-59
2023/05/27 00:14:07;;;;;;;9.53;3.20;;;;;;;9.54;100.00;101925.13;688090;28;1293;-60
2023/05/27 00:14:28;;;;;;;11.57;3.50;;;;;;;9.53;100.00;101923.34;686573;28;1432;-60
2023/05/27 00:14:48;;;;;;;12.73;3.73;;;;;;;9.50;100.00;101921.56;688497;28;1178;-59
2023/05/27 00:15:09;;;;;;;10.57;3.20;;;;;;;9.46;100.00;101922.34;688107;28;916;-60
2023/05/27 00:15:30;;;;;;;9.63;3.17;;;;;;;9.44;100.00;101921.44;687222;28;1560;-59
2023/05/27 00:15:51;;;;;;;8.93;3.10;;;;;;;9.45;100.00;101920.56;688424;28;4377;-59
2023/05/27 00:16:11;;;;;;;10.23;3.57;;;;;;;9.49;100.00;101927.63;687287;28;3125;-58
2023/05/27 00:16:35;;;;;;;9.35;3.50;;;;;;;9.49;100.00;101919.78;686786;28;1625;-60
2023/05/27 00:16:56;;;;;;;10.07;3.10;;;;;;;9.50;100.00;101924.16;688754;28;951;-60
2023/05/27 00:17:17;;;;;;;10.53;3.70;;;;;;;9.47;100.00;101918.00;687015;28;1467;-60
2023/05/27 00:17:39;;;;;;;9.63;3.17;;;;;;;9.47;100.00;101924.13;689355;28;1058;-59
2023/05/27 00:18:02;;;;;;;9.15;3.10;;;;;;;9.49;100.00;101918.91;691665;28;1066;-60
2023/05/27 00:18:22;;;;;;;9.25;3.13;;;;;;;9.47;100.00;101916.28;689730;28;1572;-60
2023/05/27 00:18:43;;;;;;;10.83;3.40;;;;;;;9.47;100.00;101918.88;692040;28;4637;-58
2023/05/27 00:19:03;;;;;;;10.98;3.17;;;;;;;9.46;100.00;101919.72;693213;28;1054;-60
2023/05/27 00:19:24;;;;;;;10.97;3.27;;;;;;;9.44;100.00;101917.94;691175;28;1581;-59
2023/05/27 00:19:44;;;;;;;8.15;3.47;;;;;;;9.44;100.00;101907.50;693055;28;979;-60
2023/05/27 00:20:07;;;;;;;8.30;3.20;;;;;;;9.42;100.00;101910.09;691257;28;951;-60
2023/05/27 00:20:29;;;;;;;9.45;3.22;;;;;;;9.42;100.00;101910.09;688536;28;1574;-60
2023/05/27 00:20:50;;;;;;;13.23;3.50;;;;;;;9.41;100.00;101917.88;687112;28;904;-59
2023/05/27 00:21:10;;;;;;;10.07;3.25;;;;;;;9.39;100.00;101915.25;687777;28;932;-60
2023/05/27 00:21:31;;;;;;;7.63;2.92;;;;;;;9.36;100.00;101912.59;685832;28;1142;-60
2023/05/27 00:21:55;;;;;;;8.07;2.90;;;;;;;9.39;100.00;101910.03;687528;28;4266;-59
2023/05/27 00:22:15;;;;;;;8.48;3.22;;;;;;;9.47;100.00;101913.66;688021;28;1050;-59
2023/05/27 00:22:36;;;;;;;9.68;3.30;;;;;;;9.47;100.00;101918.88;691157;28;1063;-60
2023/05/27 00:22:59;;;;;;;11.45;3.20;;;;;;;9.45;100.00;101920.56;693073;28;1141;-59
2023/05/27 00:23:19;;;;;;;9.40;3.10;;;;;;;9.44;100.00;101913.63;692087;28;1571;-60
2023/05/27 00:23:45;;;;;;;8.18;3.10;;;;;;;9.42;100.00;101907.47;692904;28;864;-59
2023/05/27 00:24:05;;;;;;;10.07;3.10;;;;;;;9.40;100.00;101913.50;693703;28;1023;-60
2023/05/27 00:24:26;;;;;;;10.43;2.83;;;;;;;9.35;100.00;101910.81;691973;28;1578;-60
2023/05/27 00:24:46;;;;;;;10.13;2.70;;;;;;;9.34;100.00;101915.13;689890;28;4447;-59
2023/05/27 00:25:07;;;;;;;10.87;2.87;;;;;;;9.32;100.00;101913.38;691001;28;998;-60
2023/05/27 00:25:28;;;;;;;8.88;3.10;;;;;;;9.31;100.00;101915.06;689427;28;1532;-60
2023/05/27 00:25:48;;;;;;;11.20;3.20;;;;;;;9.28;100.00;101911.53;690119;28;1174;-60
2023/05/27 00:26:08;;;;;;;11.23;3.17;;;;;;;9.25;100.00;101914.06;688175;28;1305;-60
2023/05/27 00:26:29;;;;;;;11.50;3.53;;;;;;;9.24;100.00;101918.41;686518;28;1500;-60
2023/05/27 00:26:50;;;;;;;8.80;3.15;;;;;;;9.24;100.00;101917.53;685048;28;1545;-60
2023/05/27 00:27:11;;;;;;;10.37;3.20;;;;;;;9.23;100.00;101918.38;685609;28;838;-59
2023/05/27 00:27:31;;;;;;;10.75;3.28;;;;;;;9.24;100.00;101917.53;684484;28;1454;-59
2023/05/27 00:27:51;;;;;;;10.87;3.20;;;;;;;9.24;100.00;101914.94;687187;28;4465;-60
2023/05/27 00:28:12;;;;;;;9.85;3.03;;;;;;;9.23;100.00;101915.78;687821;28;1204;-59
2023/05/27 00:28:32;;;;;;;11.67;3.03;;;;;;;9.22;100.00;101916.63;686776;28;1496;-60
2023/05/27 00:28:53;;;;;;;11.97;3.10;;;;;;;9.18;100.00;101913.94;690582;28;877;-59
2023/05/27 00:29:15;;;;;;;9.10;3.20;;;;;;;9.18;100.00;101918.31;690620;28;1133;-60
2023/05/27 00:29:35;;;;;;;9.85;3.47;;;;;;;9.18;100.00;101924.38;689240;28;1363;-60
2023/05/27 00:29:56;;;;;;;9.77;2.95;;;;;;;9.21;100.00;101920.97;690284;28;1075;-59
2023/05/27 00:30:16;;;;;;;8.20;2.90;;;;;;;9.22;100.00;101912.31;689384;28;1508;-59
2023/05/27 00:30:37;;;;;;;11.73;3.28;;;;;;;9.22;100.00;101907.09;690790;28;892;-59
2023/05/27 00:30:57;;;;;;;10.63;3.33;;;;;;;9.23;100.00;101915.78;687016;28;4367;-60
2023/05/27 00:31:18;;;;;;;10.40;3.00;;;;;;;9.21;100.00;101910.53;684157;28;1527;-60
2023/05/27 00:31:39;;;;;;;9.55;2.85;;;;;;;9.18;100.00;101913.94;684508;28;1051;-60
2023/05/27 00:32:02;;;;;;;10.33;3.37;;;;;;;9.18;100.00;101913.09;685139;28;801;-59
2023/05/27 00:32:25;;;;;;;8.85;3.42;;;;;;;9.19;100.00;101910.50;687029;28;1449;-60
2023/05/27 00:32:46;;;;;;;9.02;3.25;;;;;;;9.22;100.00;101911.41;688970;28;1458;-59
2023/05/27 00:33:07;;;;;;;12.73;3.25;;;;;;;9.23;100.00;101911.44;689834;28;2006;-59
2023/05/27 00:33:27;;;;;;;9.70;3.28;;;;;;;9.23;100.00;101907.94;689113;28;1977;-60
2023/05/27 00:33:48;;;;;;;8.50;3.00;;;;;;;9.21;100.00;101915.75;690471;28;4346;-60
2023/05/27 00:34:08;;;;;;;10.38;3.30;;;;;;;9.22;100.00;101917.53;687148;28;1031;-60
2023/05/27 00:34:29;;;;;;;9.23;3.20;;;;;;;9.24;100.00;101913.19;687179;28;1474;-59
2023/05/27 00:34:50;;;;;;;8.35;3.10;;;;;;;9.24;100.00;101907.97;690537;28;1082;-60
2023/05/27 00:35:10;;;;;;;10.33;3.30;;;;;;;9.25;100.00;101916.69;688729;28;1334;-59
2023/05/27 00:35:30;;;;;;;10.57;3.07;;;;;;;9.25;100.00;101914.06;689767;28;1258;-60
2023/05/27 00:35:51;;;;;;;10.40;3.05;;;;;;;9.25;100.00;101916.69;687632;28;833;-59
2023/05/27 00:36:11;;;;;;;8.83;3.00;;;;;;;9.24;100.00;101909.72;684685;28;1234;-59
2023/05/27 00:36:35;;;;;;;11.77;3.15;;;;;;;9.22;100.00;101909.69;684210;28;1509;-59
2023/05/27 00:36:56;;;;;;;9.65;2.97;;;;;;;9.20;100.00;101913.97;685315;28;4321;-60
2023/05/27 00:37:16;;;;;;;9.55;2.90;;;;;;;9.20;100.00;101913.97;686062;28;1473;-59
2023/05/27 00:37:37;;;;;;;10.98;3.17;;;;;;;9.20;100.00;101911.38;689754;28;1008;-60
2023/05/27 00:37:58;;;;;;;11.48;3.38;;;;;;;9.17;100.00;101914.78;690785;28;1247;-60
2023/05/27 00:38:18;;;;;;;10.17;3.20;;;;;;;9.17;100.00;101914.78;685635;28;1615;-59
2023/05/27 00:38:39;;;;;;;7.43;2.97;;;;;;;9.18;100.00;101908.72;687087;28;1320;-59
2023/05/27 00:39:00;;;;;;;9.70;3.20;;;;;;;9.17;100.00;101908.72;687894;28;5521;-59
2023/05/27 00:39:20;;;;;;;10.23;3.45;;;;;;;9.16;100.00;101917.38;685362;28;1381;-60
2023/05/27 00:39:40;;;;;;;11.10;3.53;;;;;;;9.15;100.00;101911.28;684640;28;4413;-59
2023/05/27 00:40:01;;;;;;;11.47;3.40;;;;;;;9.17;100.00;101914.78;683967;28;1071;-60
2023/05/27 00:40:24;;;;;;;10.05;2.90;;;;;;;9.15;100.00;101913.91;680732;28;1424;-60
2023/05/27 00:40:45;;;;;;;10.88;3.30;;;;;;;9.17;100.00;101906.97;683708;28;938;-59
2023/05/27 00:41:07;;;;;;;8.80;3.22;;;;;;;9.18;100.00;101908.72;683720;28;1473;-59
2023/05/27 00:41:32;;;;;;;10.90;3.45;;;;;;;9.16;100.00;101909.53;682684;28;1494;-60
2023/05/27 00:41:53;;;;;;;10.20;3.30;;;;;;;9.15;100.00;101908.69;684081;28;1028;-60
2023/05/27 00:42:14;;;;;;;10.13;3.50;;;;;;;9.15;100.00;101906.06;683710;28;1499;-59
2023/05/27 00:42:34;;;;;;;11.20;3.73;;;;;;;9.17;100.00;101912.19;682702;28;1582;-59
2023/05/27 00:42:55;;;;;;;10.83;3.57;;;;;;;9.20;100.00;101914.84;685687;28;4347;-59
2023/05/27 00:43:15;;;;;;;11.33;3.23;;;;;;;9.21;100.00;101913.13;687806;28;931;-60
2023/05/27 00:43:36;;;;;;;13.70;3.10;;;;;;;9.23;100.00;101915.78;684953;28;1838;-59
2023/05/27 00:43:56;;;;;;;9.77;2.90;;;;;;;9.24;100.00;101910.59;684990;28;972;-59
2023/05/27 00:44:17;;;;;;;8.90;3.30;;;;;;;9.20;100.00;101907.03;686705;28;1574;-60
2023/05/27 00:44:37;;;;;;;9.40;3.20;;;;;;;9.21;100.00;101907.91;687512;28;892;-61
2023/05/27 00:44:58;;;;;;;9.50;3.10;;;;;;;9.18;100.00;101905.25;688583;28;1458;-59
2023/05/27 00:45:18;;;;;;;8.90;3.00;;;;;;;9.16;100.00;101906.94;688872;28;1661;-60
2023/05/27 00:45:39;;;;;;;8.87;2.97;;;;;;;9.13;100.00;101907.75;687747;28;4541;-59
2023/05/27 00:46:00;;;;;;;8.43;2.80;;;;;;;9.11;100.00;101909.47;686155;28;972;-59
2023/05/27 00:46:20;;;;;;;8.75;3.08;;;;;;;9.10;100.00;101910.31;685909;28;1664;-59
2023/05/27 00:46:41;;;;;;;10.60;3.30;;;;;;;9.09;100.00;101916.34;687349;28;908;-59
2023/05/27 00:47:01;;;;;;;9.07;3.20;;;;;;;9.07;100.00;101911.94;684832;28;1241;-61
2023/05/27 00:47:27;;;;;;;9.97;2.87;;;;;;;9.07;100.00;101911.94;681617;28;1489;-59
2023/05/27 00:47:49;;;;;;;11.25;3.50;;;;;;;9.06;100.00;101916.31;684859;28;1184;-59
2023/05/27 00:48:09;;;;;;;12.23;3.30;;;;;;;9.06;100.00;101908.47;682410;29;1339;-60
2023/05/27 00:48:30;;;;;;;10.60;3.23;;;;;;;9.06;100.00;101911.09;681038;28;1438;-60
2023/05/27 00:48:51;;;;;;;7.97;3.05;;;;;;;9.06;100.00;101911.09;680413;28;4517;-60
2023/05/27 00:49:12;;;;;;;8.20;3.17;;;;;;;9.02;100.00;101909.25;681915;29;1257;-59
2023/05/27 00:49:33;;;;;;;9.77;3.30;;;;;;;8.99;100.00;101910.06;681257;28;1527;-60
2023/05/27 00:49:53;;;;;;;10.35;3.05;;;;;;;8.99;100.00;101915.28;682781;28;1371;-60
2023/05/27 00:50:14;;;;;;;9.33;3.03;;;;;;;9.00;100.00;101909.22;685189;28;1363;-60
2023/05/27 00:50:34;;;;;;;10.63;3.55;;;;;;;9.01;100.00;101904.88;683213;28;1485;-59
2023/05/27 00:50:55;;;;;;;11.48;3.80;;;;;;;9.01;100.00;101912.69;687135;28;1345;-59
2023/05/27 00:51:16;;;;;;;9.97;3.27;;;;;;;8.99;100.00;101919.63;689265;28;1481;-59
2023/05/27 00:51:36;;;;;;;10.40;3.07;;;;;;;9.01;100.00;101921.44;687414;28;1618;-59
2023/05/27 00:51:57;;;;;;;9.55;3.10;;;;;;;8.98;100.00;101915.25;687389;28;4537;-59
2023/05/27 00:52:17;;;;;;;9.00;2.93;;;;;;;8.99;100.00;101917.03;686626;28;1725;-60
2023/05/27 00:52:38;;;;;;;8.98;2.83;;;;;;;8.98;100.00;101918.72;687345;28;1032;-58
2023/05/27 00:52:58;;;;;;;9.80;3.23;;;;;;;8.98;100.00;101912.63;681896;28;1469;-59
2023/05/27 00:53:20;;;;;;;10.32;3.58;;;;;;;8.97;100.00;101917.00;681640;28;1567;-59
2023/05/27 00:53:42;;;;;;;10.10;3.28;;;;;;;8.97;100.00;101918.69;683754;28;1922;-59
2023/05/27 00:54:02;;;;;;;10.27;3.40;;;;;;;8.96;100.00;101919.56;684127;28;1437;-59
2023/05/27 00:54:23;;;;;;;10.00;3.30;;;;;;;8.95;100.00;101917.78;680384;29;1657;-59
2023/05/27 00:54:43;;;;;;;10.10;3.43;;;;;;;8.96;100.00;101916.97;681384;28;4427;-59
2023/05/27 00:55:06;;;;;;;9.25;3.47;;;;;;;8.97;100.00;101921.31;683462;28;1185;-59
2023/05/27 00:55:26;;;;;;;10.63;3.17;;;;;;;9.01;100.00;101920.53;682666;28;2089;-59
2023/05/27 00:55:47;;;;;;;8.25;2.95;;;;;;;9.05;100.00;101918.88;685971;28;1134;-58
2023/05/27 00:56:09;;;;;;;8.87;3.03;;;;;;;9.13;100.00;101919.91;687126;28;1314;-58
2023/05/27 00:56:29;;;;;;;12.07;3.60;;;;;;;9.15;100.00;101923.44;684013;28;1590;-59
2023/05/27 00:56:50;;;;;;;9.10;2.92;;;;;;;9.13;100.00;101922.53;684456;28;897;-59
2023/05/27 00:57:10;;;;;;;9.93;3.10;;;;;;;9.13;100.00;101918.19;684984;28;999;-59
2023/05/27 00:57:31;;;;;;;9.57;3.28;;;;;;;9.13;100.00;101918.19;685082;28;1562;-59
2023/05/27 00:57:55;;;;;;;10.15;3.00;;;;;;;9.13;100.00;101917.31;684855;28;5387;-59
2023/05/27 00:58:16;;;;;;;10.68;3.20;;;;;;;9.12;100.00;101919.03;686492;28;960;-59
2023/05/27 00:58:36;;;;;;;8.98;2.90;;;;;;;9.10;100.00;101922.47;689705;28;896;-59
2023/05/27 00:58:57;;;;;;;8.48;2.80;;;;;;;9.09;100.00;101920.72;687728;28;1295;-59
2023/05/27 00:59:17;;;;;;;10.97;3.40;;;;;;;9.08;100.00;101925.03;683144;28;2172;-59
2023/05/27 00:59:38;;;;;;;9.93;3.15;;;;;;;9.05;100.00;101924.09;686051;28;1334;-59
2023/05/27 00:59:58;;;;;;;8.30;3.20;;;;;;;9.03;100.00;101921.47;687569;28;1227;-59
2023/05/27 01:00:18;;;;;;;10.55;3.30;;;;;;;9.03;100.00;101926.66;685974;28;1503;-58
2023/05/27 01:00:39;;;;;;;10.30;3.23;;;;;;;8.99;100.00;101920.50;682878;28;4494;-59
2023/05/27 01:00:59;;;;;;;10.67;3.60;;;;;;;9.00;100.00;101922.25;686852;28;933;-59
2023/05/27 01:01:20;;;;;;;11.18;3.63;;;;;;;9.07;100.00;101928.50;686532;28;1657;-59
2023/05/27 01:01:43;;;;;;;9.95;3.30;;;;;;;9.07;100.00;101928.50;687414;28;1039;-59
2023/05/27 01:02:04;;;;;;;10.80;3.25;;;;;;;8.99;100.00;101914.41;687935;28;1337;-59
2023/05/27 01:02:25;;;;;;;9.25;3.33;;;;;;;8.99;100.00;101920.50;687307;28;2102;-59
2023/05/27 01:02:46;;;;;;;8.10;2.83;;;;;;;8.97;100.00;101919.59;689874;28;995;-59
2023/05/27 01:03:07;;;;;;;12.32;3.13;;;;;;;8.95;100.00;101915.19;689758;28;831;-59
2023/05/27 01:03:32;;;;;;;10.48;3.13;;;;;;;8.95;100.00;101917.78;689185;28;1656;-59
2023/05/27 01:03:55;;;;;;;9.50;2.90;;;;;;;8.97;100.00;101917.00;687590;28;4378;-59
2023/05/27 01:04:17;;;;;;;10.48;3.30;;;;;;;8.96;100.00;101914.34;686381;28;1165;-59
2023/05/27 01:04:38;;;;;;;10.02;3.33;;;;;;;8.99;100.00;101917.03;684326;28;1236;-59
2023/05/27 01:04:59;;;;;;;11.65;3.20;;;;;;;9.06;100.00;101920.66;682469;28;1490;-59
2023/05/27 01:05:21;;;;;;;11.90;3.10;;;;;;;9.05;100.00;101919.75;681079;28;1515;-59
2023/05/27 01:05:42;;;;;;;10.57;3.30;;;;;;;9.04;100.00;101917.97;682412;28;842;-59
2023/05/27 01:06:14;;;;;;;10.95;3.20;;;;;;;8.99;100.00;101914.41;680023;29;1261;-58
2023/05/27 01:06:38;;;;;;;10.70;3.05;;;;;;;8.98;100.00;101923.06;678842;28;1494;-59
2023/05/27 01:07:16;;;;;;;9.70;3.10;;;;;;;8.97;100.00;101917.00;687069;28;6253;-59
2023/05/27 01:08:14;;;;;;;9.52;3.08;;;;;;;8.94;100.00;101916.03;687295;28;1062;-59
2023/05/27 01:08:48;;;;;;;9.82;3.42;;;;;;;8.94;100.00;101910.81;686490;28;1611;-59
2023/05/27 01:09:16;;;;;;;9.88;3.42;;;;;;;8.91;100.00;101918.56;684659;28;1245;-59
2023/05/27 01:09:51;;;;;;;11.88;3.38;;;;;;;8.86;100.00;101916.75;684971;28;869;-59
2023/05/27 01:10:39;;;;;;;14.20;3.28;;;;;;;8.93;100.00;101914.25;686962;28;5076;-59
2023/05/27 01:11:00;;;;;;;9.77;3.20;;;;;;;8.91;100.00;101915.97;688758;28;1427;-59
2023/05/27 01:11:27;;;;;;;7.80;3.10;;;;;;;8.93;100.00;101925.59;689477;28;1468;-58
2023/05/27 01:11:54;;;;;;;8.07;3.08;;;;;;;8.93;100.00;101919.47;690016;28;1416;-58
2023/05/27 01:12:35;;;;;;;12.38;3.10;;;;;;;8.93;100.00;101919.47;690316;28;807;-59
2023/05/27 01:13:01;;;;;;;10.13;2.92;;;;;;;8.91;100.00;101923.78;685384;28;4579;-58
2023/05/27 01:13:46;;;;;;;9.95;3.05;;;;;;;8.90;100.00;101928.09;685819;28;1735;-59
2023/05/27 01:14:10;;;;;;;12.07;3.10;;;;;;;8.89;100.00;101922.84;685639;28;1216;-59
2023/05/27 01:14:33;;;;;;;9.77;2.97;;;;;;;8.87;100.00;101917.63;683180;28;1388;-59
2023/05/27 01:14:56;;;;;;;9.88;3.60;;;;;;;8.87;100.00;101925.44;687182;28;1381;-59
2023/05/27 01:15:18;;;;;;;11.35;4.30;;;;;;;8.86;100.00;101918.44;686957;28;998;-59
2023/05/27 01:15:40;;;;;;;11.93;3.17;;;;;;;8.84;100.00;101922.78;685248;28;4459;-58
2023/05/27 01:16:05;;;;;;;9.85;3.53;;;;;;;8.84;100.00;101926.25;687453;28;1309;-59
2023/05/27 01:16:28;;;;;;;8.68;3.30;;;;;;;8.87;100.00;101917.63;684948;28;1470;-59
2023/05/27 01:16:51;;;;;;;10.85;3.45;;;;;;;8.91;100.00;101927.28;687205;28;949;-58
2023/05/27 01:17:12;;;;;;;9.18;3.05;;;;;;;8.92;100.00;101925.56;684831;28;1422;-59
2023/05/27 01:17:37;;;;;;;10.30;3.60;;;;;;;8.89;100.00;101922.84;683162;28;1641;-59
2023/05/27 01:18:02;;;;;;;8.07;3.40;;;;;;;8.91;100.00;101916.84;682491;29;1475;-58
2023/05/27 01:18:29;;;;;;;10.65;3.67;;;;;;;8.99;100.00;101922.25;683134;28;1608;-59
2023/05/27 01:18:53;;;;;;;10.60;2.97;;;;;;;9.15;100.00;101923.44;683110;28;4554;-58
2023/05/27 01:19:25;;;;;;;10.50;3.20;;;;;;;9.16;100.00;101919.97;683517;28;1541;-59
2023/05/27 01:19:47;;;;;;;7.15;2.95;;;;;;;9.09;100.00;101915.50;684773;28;1000;-59
2023/05/27 01:20:13;;;;;;;10.75;3.50;;;;;;;9.04;100.00;101920.59;686693;28;829;-58
2023/05/27 01:20:34;;;;;;;8.85;3.38;;;;;;;9.12;100.00;101921.63;682423;28;1507;-58
2023/05/27 01:20:59;;;;;;;9.23;3.30;;;;;;;9.16;100.00;101917.38;685151;28;1295;-59
2023/05/27 01:21:24;;;;;;;9.82;3.00;;;;;;;9.11;100.00;101919.91;686455;28;1594;-59
2023/05/27 01:21:50;;;;;;;10.07;3.28;;;;;;;9.08;100.00;101921.53;688247;28;4443;-58
2023/05/27 01:22:15;;;;;;;11.25;3.22;;;;;;;9.02;100.00;101914.47;690178;28;1026;-58
2023/05/27 01:22:36;;;;;;;7.88;3.20;;;;;;;8.98;100.00;101915.25;688579;28;1592;-60
2023/05/27 01:22:59;;;;;;;8.38;3.17;;;;;;;8.94;100.00;101914.28;688950;28;876;-59
2023/05/27 01:23:20;;;;;;;11.48;3.50;;;;;;;8.93;100.00;101919.47;688159;28;1567;-58
2023/05/27 01:23:44;;;;;;;9.40;2.88;;;;;;;8.90;100.00;101911.59;689275;28;948;-58
2023/05/27 01:24:05;;;;;;;9.57;3.22;;;;;;;8.87;100.00;101917.63;689761;28;1382;-61
2023/05/27 01:24:26;;;;;;;11.10;3.20;;;;;;;8.97;100.00;101910.88;689237;28;1587;-58
2023/05/27 01:24:46;;;;;;;10.65;3.25;;;;;;;9.11;100.00;101919.00;685571;28;4411;-58
2023/05/27 01:25:09;;;;;;;10.32;3.45;;;;;;;9.11;100.00;101909.47;686131;28;853;-58
2023/05/27 01:25:29;;;;;;;12.60;3.40;;;;;;;8.98;100.00;101913.50;686577;28;1457;-60
2023/05/27 01:25:50;;;;;;;11.77;3.25;;;;;;;8.94;100.00;101919.50;688329;28;789;-59
2023/05/27 01:26:10;;;;;;;10.87;3.10;;;;;;;8.92;100.00;101910.78;689844;28;1568;-59
2023/05/27 01:26:31;;;;;;;10.23;3.20;;;;;;;8.86;100.00;101913.22;689279;28;1552;-61
2023/05/27 01:26:52;;;;;;;10.80;3.40;;;;;;;8.89;100.00;101915.03;690704;28;877;-58
2023/05/27 01:27:12;;;;;;;9.35;3.17;;;;;;;8.86;100.00;101914.13;693057;28;1405;-59
2023/05/27 01:27:33;;;;;;;9.35;3.28;;;;;;;8.84;100.00;101914.94;690562;28;1482;-58
2023/05/27 01:27:56;;;;;;;12.77;3.13;;;;;;;8.84;100.00;101917.56;692138;28;4531;-58
2023/05/27 01:28:16;;;;;;;8.70;2.85;;;;;;;8.81;100.00;101907.06;685384;28;1404;-59
2023/05/27 01:28:37;;;;;;;8.07;3.38;;;;;;;8.79;100.00;101912.25;683967;28;1483;-59
2023/05/27 01:28:58;;;;;;;11.30;3.70;;;;;;;8.78;100.00;101909.59;684287;28;1326;-59
2023/05/27 01:29:19;;;;;;;11.38;3.50;;;;;;;8.75;100.00;101904.28;683658;28;1587;-58
2023/05/27 01:29:41;;;;;;;10.23;3.40;;;;;;;8.74;100.00;101911.25;684657;28;1439;-58
2023/05/27 01:30:02;;;;;;;10.95;4.07;;;;;;;8.73;100.00;101901.66;686477;28;907;-58
2023/05/27 01:30:23;;;;;;;9.57;3.25;;;;;;;8.73;100.00;101908.63;689070;28;1471;-59
2023/05/27 01:30:44;;;;;;;9.13;3.25;;;;;;;8.74;100.00;101908.66;689989;28;4427;-58
2023/05/27 01:31:13;;;;;;;8.55;2.92;;;;;;;8.74;100.00;101902.56;690102;28;1378;-59
2023/05/27 01:32:04;;;;;;;10.00;3.30;;;;;;;8.72;100.00;101905.09;684942;28;1652;-58
2023/05/27 01:32:41;;;;;;;10.90;3.22;;;;;;;8.67;100.00;101901.53;686510;28;1441;-59
2023/05/27 01:33:06;;;;;;;9.70;3.55;;;;;;;8.64;100.00;101904.94;689267;28;1539;-59
2023/05/27 01:33:31;;;;;;;7.97;3.20;;;;;;;8.64;100.00;101901.44;687387;28;2001;-59
2023/05/27 01:34:06;;;;;;;11.68;3.90;;;;;;;8.65;100.00;101905.81;685840;28;4384;-59
2023/05/27 01:34:38;;;;;;;10.65;3.38;;;;;;;8.61;100.00;101906.59;681631;28;1652;-59
2023/05/27 01:35:18;;;;;;;12.07;3.35;;;;;;;8.61;100.00;101906.59;685741;28;876;-59
2023/05/27 01:35:53;;;;;;;11.48;3.30;;;;;;;8.60;100.00;101910.03;687997;28;938;-59
2023/05/27 01:36:20;;;;;;;15.15;3.72;;;;;;;8.57;100.00;101909.97;685881;28;1461;-60
2023/05/27 01:36:48;;;;;;;12.25;3.15;;;;;;;8.57;100.00;101909.97;683577;28;4569;-58
2023/05/27 01:37:13;;;;;;;10.68;3.05;;;;;;;8.58;100.00;101904.78;684033;28;1343;-58
2023/05/27 01:37:38;;;;;;;10.93;3.35;;;;;;;8.59;100.00;101903.09;685454;28;1482;-59
2023/05/27 01:38:04;;;;;;;8.95;2.83;;;;;;;8.59;100.00;101903.09;684082;28;1446;-59
2023/05/27 01:38:28;;;;;;;8.93;3.00;;;;;;;8.59;100.00;101905.69;680985;28;2095;-59
2023/05/27 01:38:50;;;;;;;8.73;3.13;;;;;;;8.62;100.00;101905.75;680651;29;5466;-58
2023/05/27 01:39:12;;;;;;;10.27;3.67;;;;;;;8.63;100.00;101904.91;684654;28;1720;-59
2023/05/27 01:39:33;;;;;;;10.48;2.97;;;;;;;8.63;100.00;101902.31;680949;28;1882;-58
2023/05/27 01:39:54;;;;;;;9.68;2.90;;;;;;;8.64;100.00;101907.56;687571;28;4354;-58
2023/05/27 01:40:17;;;;;;;11.70;3.30;;;;;;;8.62;100.00;101903.16;683413;28;1311;-59
2023/05/27 01:40:40;;;;;;;11.82;3.20;;;;;;;8.58;100.00;101910.00;683091;28;1543;-59
2023/05/27 01:41:01;;;;;;;11.73;3.30;;;;;;;8.57;100.00;101912.56;684032;28;1730;-60
2023/05/27 01:41:22;;;;;;;10.40;3.40;;;;;;;8.54;100.00;101910.78;680039;28;1471;-59
2023/05/27 01:41:45;;;;;;;10.35;3.65;;;;;;;8.52;100.00;101915.94;685524;28;1291;-59
2023/05/27 01:42:08;;;;;;;11.00;3.28;;;;;;;8.54;100.00;101910.78;683018;28;1464;-59
2023/05/27 01:42:31;;;;;;;13.38;4.13;;;;;;;8.52;100.00;101908.13;682403;28;1453;-59
2023/05/27 01:42:52;;;;;;;9.98;3.95;;;;;;;8.56;100.00;101911.72;685214;28;4367;-58
2023/05/27 01:43:14;;;;;;;9.30;3.10;;;;;;;8.64;100.00;101907.56;686762;28;988;-59
2023/05/27 01:43:37;;;;;;;8.63;3.25;;;;;;;8.64;100.00;101907.56;682946;28;1629;-58
2023/05/27 01:43:58;;;;;;;10.32;3.55;;;;;;;8.62;100.00;101906.63;685281;28;919;-59
2023/05/27 01:44:20;;;;;;;10.23;3.40;;;;;;;8.59;100.00;101901.34;681108;28;1719;-58
2023/05/27 01:44:42;;;;;;;8.73;3.22;;;;;;;8.62;100.00;101910.97;682827;28;1337;-58
2023/05/27 01:45:05;;;;;;;10.60;3.30;;;;;;;8.60;100.00;101910.03;680745;29;1392;-58
2023/05/27 01:45:26;;;;;;;8.88;2.85;;;;;;;8.59;100.00;101913.50;682141;28;1449;-58
2023/05/27 01:45:46;;;;;;;10.43;3.58;;;;;;;8.55;100.00;101906.47;680240;28;4509;-58
2023/05/27 01:46:07;;;;;;;10.83;3.70;;;;;;;8.54;100.00;101908.16;681812;29;991;-58
2023/05/27 01:46:27;;;;;;;10.25;3.20;;;;;;;8.54;100.00;101907.28;680641;28;1527;-58